Time;durP1;ratioP1;P1;durP2;ratioP2;P2;SDS_P1;SDS_P2;PMS_P1;PMS_P2;Temp;Humidity;BMP_temperature;BMP_pressure;BME280_temperature;BME280_humidity;BME280_pressure;Samples;Min_cycle;Max_cycle;Signal;HPM_P1;HPM_P2
2021/06/03 00:01:46;;;;;;;;;;;;;;;;;;5026531;28;19966;-83
2021/06/03 00:04:13;;;;;;;;;;;;;;;;;;5038735;28;19967;-84
2021/06/03 00:06:38;;;;;;;;;;;;;;;;;;5020671;28;19924;-83
2021/06/03 00:09:04;;;;;;;;;;;;;;;;;;5017037;28;20274;-83
2021/06/03 00:11:30;;;;;;;;;;;;;;;;;;5018876;28;19940;-83
2021/06/03 00:13:56;;;;;;;;;;;;;;;;;;5018321;28;19957;-83
2021/06/03 00:16:22;;;;;;;;;;;;;;;;;;5018028;28;19968;-82
2021/06/03 00:18:49;;;;;;;;;;;;;;;;;;5018455;28;19928;-83
2021/06/03 00:21:15;;;;;;;;;;;;;;;;;;5017827;28;19944;-82
2021/06/03 00:23:41;;;;;;;;;;;;;;;;;;5017803;28;19951;-81
2021/06/03 00:26:07;;;;;;;;;;;;;;;;;;5018790;28;19922;-82
2021/06/03 00:28:33;;;;;;;;;;;;;;;;;;5018678;28;19929;-80
2021/06/03 00:30:59;;;;;;;;;;;;;;;;;;5019063;28;20344;-82
2021/06/03 00:33:25;;;;;;;;;;;;;;;;;;5018650;28;20012;-82
2021/06/03 00:35:52;;;;;;;;;;;;;;;;;;4982274;28;19922;-82
2021/06/03 00:38:18;;;;;;;;;;;;;;;;;;4999518;28;19957;-82
2021/06/03 00:40:44;;;;;;;;;;;;;;;;;;4982862;28;19921;-83
2021/06/03 00:43:10;;;;;;;;;;;;;;;;;;5026623;28;20902;-83
2021/06/03 00:45:38;;;;;;;;;;;;;;;;;;5019859;28;19925;-83
2021/06/03 00:48:04;;;;;;;;;;;;;;;;;;5037855;28;19924;-83
2021/06/03 00:50:31;;;;;;;;;;;;;;;;;;5005446;28;19922;-83
2021/06/03 00:52:58;;;;;;;;;;;;;;;;;;5017668;28;19925;-83
2021/06/03 00:55:24;;;;;;;;;;;;;;;;;;5017620;28;19921;-83
2021/06/03 00:57:50;;;;;;;;;;;;;;;;;;5016766;28;19922;-82
2021/06/03 01:00:16;;;;;;;;;;;;;;;;;;5019286;28;19968;-82
2021/06/03 01:02:42;;;;;;;;;;;;;;;;;;5019464;28;19928;-82
2021/06/03 01:05:09;;;;;;;;;;;;;;;;;;5018229;28;19925;-84
2021/06/03 01:07:35;;;;;;;;;;;;;;;;;;5017978;28;19922;-83
2021/06/03 01:10:05;;;;;;;;;;;;;;;;;;5017863;28;19953;-83
2021/06/03 01:12:33;;;;;;;;;;;;;;;;;;5018534;28;19921;-82
2021/06/03 01:14:59;;;;;;;;;;;;;;;;;;5017555;28;19925;-82
2021/06/03 01:17:25;;;;;;;;;;;;;;;;;;5017122;28;19929;-82
2021/06/03 01:19:51;;;;;;;;;;;;;;;;;;5017067;28;20291;-82
2021/06/03 01:22:19;;;;;;;;;;;;;;;;;;5017460;28;19968;-82
2021/06/03 01:24:46;;;;;;;;;;;;;;;;;;5017371;28;19922;-82
2021/06/03 01:27:13;;;;;;;;;;;;;;;;;;5018121;28;20427;-82
2021/06/03 01:29:42;;;;;;;;;;;;;;;;;;5017798;28;19992;-82
2021/06/03 01:32:08;;;;;;;;;;;;;;;;;;5017716;28;19921;-82
2021/06/03 01:34:34;;;;;;;;;;;;;;;;;;5003289;28;19936;-82
2021/06/03 01:37:00;;;;;;;;;;;;;;;;;;5021254;28;19925;-82
2021/06/03 01:39:25;;;;;;;;;;;;;;;;;;5021082;28;19933;-83
2021/06/03 01:41:53;;;;;;;;;;;;;;;;;;5020815;28;19922;-84
2021/06/03 01:44:19;;;;;;;;;;;;;;;;;;5020175;28;20380;-83
2021/06/03 01:46:44;;;;;;;;;;;;;;;;;;5022085;28;19952;-80
2021/06/03 01:49:10;;;;;;;;;;;;;;;;;;5030024;28;19963;-82
2021/06/03 01:51:36;;;;;;;;;;;;;;;;;;5035104;28;19944;-83
2021/06/03 01:54:02;;;;;;;;;;;;;;;;;;5039967;28;20436;-82
2021/06/03 01:56:28;;;;;;;;;;;;;;;;;;5021781;28;19921;-80
2021/06/03 01:58:57;;;;;;;;;;;;;;;;;;5020864;28;20428;-83
2021/06/03 02:01:23;;;;;;;;;;;;;;;;;;5020545;28;19985;-82
2021/06/03 02:03:49;;;;;;;;;;;;;;;;;;5020470;28;19925;-82
2021/06/03 02:06:15;;;;;;;;;;;;;;;;;;5020066;28;20008;-82
2021/06/03 02:08:41;;;;;;;;;;;;;;;;;;5019936;28;19925;-82
2021/06/03 02:11:07;;;;;;;;;;;;;;;;;;5021375;28;19945;-82
2021/06/03 02:13:34;;;;;;;;;;;;;;;;;;5021309;28;19921;-82
2021/06/03 02:16:02;;;;;;;;;;;;;;;;;;5027837;28;19921;-83
2021/06/03 02:18:31;;;;;;;;;;;;;;;;;;5034173;28;20410;-82
2021/06/03 02:20:57;;;;;;;;;;;;;;;;;;5039671;28;19920;-82
2021/06/03 02:23:23;;;;;;;;;;;;;;;;;;5021101;28;19952;-82
2021/06/03 02:25:49;;;;;;;;;;;;;;;;;;5026610;28;19925;-82
2021/06/03 02:28:15;;;;;;;;;;;;;;;;;;5020561;28;19922;-82
2021/06/03 02:30:41;;;;;;;;;;;;;;;;;;5020290;28;20427;-83
2021/06/03 02:33:08;;;;;;;;;;;;;;;;;;5020021;28;19921;-84
2021/06/03 02:35:34;;;;;;;;;;;;;;;;;;5020038;28;19921;-83
2021/06/03 02:38:00;;;;;;;;;;;;;;;;;;5020121;28;20381;-82
2021/06/03 02:40:26;;;;;;;;;;;;;;;;;;5019858;28;19927;-82
2021/06/03 02:42:52;;;;;;;;;;;;;;;;;;5020164;28;19926;-82
2021/06/03 02:45:20;;;;;;;;;;;;;;;;;;5019654;28;20352;-83
2021/06/03 02:47:46;;;;;;;;;;;;;;;;;;5021880;28;19925;-83
2021/06/03 02:50:14;;;;;;;;;;;;;;;;;;4996609;28;19928;-83
2021/06/03 02:52:40;;;;;;;;;;;;;;;;;;5035913;28;20387;-82
2021/06/03 02:55:08;;;;;;;;;;;;;;;;;;5032971;28;19990;-82
2021/06/03 02:57:33;;;;;;;;;;;;;;;;;;5020610;28;19926;-82
2021/06/03 02:59:59;;;;;;;;;;;;;;;;;;5020055;28;19925;-83
2021/06/03 03:02:25;;;;;;;;;;;;;;;;;;5019281;28;20332;-83
2021/06/03 03:04:51;;;;;;;;;;;;;;;;;;5019288;28;19921;-83
2021/06/03 03:07:18;;;;;;;;;;;;;;;;;;5019721;28;19921;-82
2021/06/03 03:09:44;;;;;;;;;;;;;;;;;;5002154;28;19921;-83
2021/06/03 03:12:10;;;;;;;;;;;;;;;;;;5019341;28;20012;-83
2021/06/03 03:14:36;;;;;;;;;;;;;;;;;;5019533;28;19921;-82
2021/06/03 03:17:02;;;;;;;;;;;;;;;;;;5018337;28;19921;-82
2021/06/03 03:19:28;;;;;;;;;;;;;;;;;;5019167;28;20369;-82
2021/06/03 03:21:54;;;;;;;;;;;;;;;;;;5021279;28;19921;-82
2021/06/03 03:24:21;;;;;;;;;;;;;;;;;;5002234;28;20431;-83
2021/06/03 03:26:47;;;;;;;;;;;;;;;;;;5018910;28;19922;-83
2021/06/03 03:29:13;;;;;;;;;;;;;;;;;;5019015;28;19921;-83
2021/06/03 03:31:39;;;;;;;;;;;;;;;;;;5018708;28;19998;-82
2021/06/03 03:34:05;;;;;;;;;;;;;;;;;;5019169;28;19956;-83
2021/06/03 03:36:31;;;;;;;;;;;;;;;;;;5019543;28;19967;-83
2021/06/03 03:38:56;;;;;;;;;;;;;;;;;;5019051;28;19929;-83
2021/06/03 03:41:24;;;;;;;;;;;;;;;;;;5019100;28;19921;-83
2021/06/03 03:43:50;;;;;;;;;;;;;;;;;;5018964;28;20303;-83
2021/06/03 03:46:16;;;;;;;;;;;;;;;;;;5019022;28;19925;-83
2021/06/03 03:48:42;;;;;;;;;;;;;;;;;;5023854;28;20304;-83
2021/06/03 03:51:10;;;;;;;;;;;;;;;;;;5006623;28;19976;-83
2021/06/03 03:53:35;;;;;;;;;;;;;;;;;;5016572;28;20340;-83
2021/06/03 03:56:01;;;;;;;;;;;;;;;;;;5022313;28;19928;-84
2021/06/03 03:58:28;;;;;;;;;;;;;;;;;;5018120;28;19928;-85
2021/06/03 04:00:56;;;;;;;;;;;;;;;;;;5018554;28;19921;-86
2021/06/03 04:03:22;;;;;;;;;;;;;;;;;;5002656;28;20028;-84
2021/06/03 04:05:48;;;;;;;;;;;;;;;;;;5018075;28;20316;-84
2021/06/03 04:08:14;;;;;;;;;;;;;;;;;;5018765;28;19922;-83
2021/06/03 04:10:40;;;;;;;;;;;;;;;;;;5018423;28;19932;-83
2021/06/03 04:13:06;;;;;;;;;;;;;;;;;;5020873;28;20308;-83
2021/06/03 04:15:33;;;;;;;;;;;;;;;;;;5029327;28;20402;-83
2021/06/03 04:17:59;;;;;;;;;;;;;;;;;;5038056;28;20191;-83
2021/06/03 04:20:25;;;;;;;;;;;;;;;;;;5037874;28;19924;-84
2021/06/03 04:22:51;;;;;;;;;;;;;;;;;;5037840;28;20401;-84
2021/06/03 04:25:17;;;;;;;;;;;;;;;;;;5038123;28;20023;-85
2021/06/03 04:27:42;;;;;;;;;;;;;;;;;;5019886;28;20287;-84
2021/06/03 04:30:09;;;;;;;;;;;;;;;;;;5037992;28;19921;-84
2021/06/03 04:32:36;;;;;;;;;;;;;;;;;;5037879;28;19932;-84
2021/06/03 04:35:03;;;;;;;;;;;;;;;;;;5030963;28;19928;-85
2021/06/03 04:37:29;;;;;;;;;;;;;;;;;;5017543;28;20011;-84
2021/06/03 04:39:55;;;;;;;;;;;;;;;;;;5000394;28;19922;-84
2021/06/03 04:42:21;;;;;;;;;;;;;;;;;;5018008;28;20423;-84
2021/06/03 04:44:47;;;;;;;;;;;;;;;;;;5018210;28;19933;-85
2021/06/03 04:47:13;;;;;;;;;;;;;;;;;;5017986;28;19943;-82
2021/06/03 04:49:40;;;;;;;;;;;;;;;;;;5002387;28;20524;-82
2021/06/03 04:54:46;;;;;;;;;;;;;;;;;;5033999;28;19921;-84
2021/06/03 04:57:12;;;;;;;;;;;;;;;;;;5037808;28;20379;-83
2021/06/03 04:59:38;;;;;;;;;;;;;;;;;;5038121;28;19921;-83
2021/06/03 05:02:04;;;;;;;;;;;;;;;;;;5021188;28;19927;-86
2021/06/03 05:04:31;;;;;;;;;;;;;;;;;;5036576;28;19921;-83
2021/06/03 05:06:58;;;;;;;;;;;;;;;;;;5018554;28;19922;-85
2021/06/03 05:09:24;;;;;;;;;;;;;;;;;;5016878;28;19925;-84
2021/06/03 05:11:50;;;;;;;;;;;;;;;;;;5017761;28;19951;-83
2021/06/03 05:14:15;;;;;;;;;;;;;;;;;;5018242;28;19922;-86
2021/06/03 05:16:41;;;;;;;;;;;;;;;;;;5000328;28;19922;-83
2021/06/03 05:19:07;;;;;;;;;;;;;;;;;;5017585;28;19921;-85
2021/06/03 05:21:33;;;;;;;;;;;;;;;;;;5000605;28;19922;-85
2021/06/03 05:24:00;;;;;;;;;;;;;;;;;;5018726;28;19964;-85
2021/06/03 05:26:26;;;;;;;;;;;;;;;;;;5019139;28;20281;-86
2021/06/03 05:28:52;;;;;;;;;;;;;;;;;;5019352;28;19928;-86
2021/06/03 05:31:18;;;;;;;;;;;;;;;;;;5018576;28;19922;-86
2021/06/03 05:33:44;;;;;;;;;;;;;;;;;;5018799;28;19928;-86
2021/06/03 05:36:10;;;;;;;;;;;;;;;;;;5017615;28;19921;-82
2021/06/03 05:38:36;;;;;;;;;;;;;;;;;;5000841;28;19928;-85
2021/06/03 05:41:03;;;;;;;;;;;;;;;;;;5017156;28;19925;-85
2021/06/03 05:43:29;;;;;;;;;;;;;;;;;;5020275;28;19921;-85
2021/06/03 05:45:55;;;;;;;;;;;;;;;;;;5000349;28;20000;-85
2021/06/03 05:48:20;;;;;;;;;;;;;;;;;;5017033;28;19925;-86
2021/06/03 05:50:46;;;;;;;;;;;;;;;;;;5019715;28;19925;-86
2021/06/03 05:53:12;;;;;;;;;;;;;;;;;;5028806;28;19921;-85
2021/06/03 05:55:38;;;;;;;;;;;;;;;;;;5020338;28;19927;-85
2021/06/03 05:58:06;;;;;;;;;;;;;;;;;;5018453;28;19944;-85
2021/06/03 06:00:33;;;;;;;;;;;;;;;;;;5018117;28;19922;-84
2021/06/03 06:03:03;;;;;;;;;;;;;;;;;;5000946;28;20273;-85
2021/06/03 06:08:14;;;;;;;;;;;;;;;;;;5002811;28;20293;-86
2021/06/03 06:10:40;;;;;;;;;;;;;;;;;;5017055;28;19941;-86
2021/06/03 06:13:08;;;;;;;;;;;;;;;;;;5017229;28;19929;-85
2021/06/03 06:15:34;;;;;;;;;;;;;;;;;;5000633;28;19921;-85
2021/06/03 06:18:00;;;;;;;;;;;;;;;;;;5018022;28;20109;-85
2021/06/03 06:20:26;;;;;;;;;;;;;;;;;;5018696;28;19921;-85
2021/06/03 06:22:52;;;;;;;;;;;;;;;;;;5021857;28;19925;-85
2021/06/03 06:25:18;;;;;;;;;;;;;;;;;;5021310;28;19921;-83
2021/06/03 06:27:45;;;;;;;;;;;;;;;;;;5021117;28;19944;-86
2021/06/03 06:30:13;;;;;;;;;;;;;;;;;;4987307;28;19925;-86
2021/06/03 06:32:40;;;;;;;;;;;;;;;;;;5020923;28;20626;-86
2021/06/03 06:35:06;;;;;;;;;;;;;;;;;;5021042;28;19975;-87
2021/06/03 06:37:32;;;;;;;;;;;;;;;;;;5003855;28;19929;-83
2021/06/03 06:39:58;;;;;;;;;;;;;;;;;;5021845;28;19921;-86
2021/06/03 06:42:25;;;;;;;;;;;;;;;;;;5021088;28;19936;-84
2021/06/03 06:44:51;;;;;;;;;;;;;;;;;;5002450;28;20024;-83
2021/06/03 06:47:18;;;;;;;;;;;;;;;;;;4968615;28;19921;-84
2021/06/03 06:49:44;;;;;;;;;;;;;;;;;;5002531;28;19921;-84
2021/06/03 06:52:10;;;;;;;;;;;;;;;;;;5006621;28;19963;-84
2021/06/03 06:54:36;;;;;;;;;;;;;;;;;;5030110;28;19976;-86
2021/06/03 06:57:03;;;;;;;;;;;;;;;;;;5042018;28;19990;-85
2021/06/03 06:59:29;;;;;;;;;;;;;;;;;;5042435;28;19921;-84
2021/06/03 07:01:55;;;;;;;;;;;;;;;;;;5036002;28;19929;-84
2021/06/03 07:04:22;;;;;;;;;;;;;;;;;;5022752;28;20028;-86
2021/06/03 07:06:48;;;;;;;;;;;;;;;;;;5021328;28;19921;-87
2021/06/03 07:09:14;;;;;;;;;;;;;;;;;;5003643;28;19921;-86
2021/06/03 07:11:40;;;;;;;;;;;;;;;;;;5020569;28;19925;-86
2021/06/03 07:14:06;;;;;;;;;;;;;;;;;;5021167;28;19921;-86
2021/06/03 07:16:32;;;;;;;;;;;;;;;;;;5005401;28;19931;-85
2021/06/03 07:18:58;;;;;;;;;;;;;;;;;;5022371;28;20270;-85
2021/06/03 07:21:25;;;;;;;;;;;;;;;;;;5004301;28;19922;-82
2021/06/03 07:23:51;;;;;;;;;;;;;;;;;;5021706;28;19923;-85
2021/06/03 07:26:19;;;;;;;;;;;;;;;;;;5004200;28;19921;-86
2021/06/03 07:28:47;;;;;;;;;;;;;;;;;;5022325;28;20016;-85
2021/06/03 07:31:12;;;;;;;;;;;;;;;;;;5021976;28;20004;-87
2021/06/03 07:33:38;;;;;;;;;;;;;;;;;;5023063;28;19932;-85
2021/06/03 07:36:04;;;;;;;;;;;;;;;;;;5005875;28;19928;-84
2021/06/03 07:38:32;;;;;;;;;;;;;;;;;;5023552;28;19925;-84
2021/06/03 07:40:59;;;;;;;;;;;;;;;;;;5023815;28;19929;-85
2021/06/03 07:43:25;;;;;;;;;;;;;;;;;;5024512;28;20006;-85
2021/06/03 07:45:51;;;;;;;;;;;;;;;;;;5024336;28;19928;-84
2021/06/03 07:48:17;;;;;;;;;;;;;;;;;;5009614;28;19922;-86
2021/06/03 07:50:43;;;;;;;;;;;;;;;;;;5026442;28;19961;-85
2021/06/03 07:53:09;;;;;;;;;;;;;;;;;;5012066;28;19921;-84
2021/06/03 07:55:37;;;;;;;;;;;;;;;;;;5029774;28;19921;-85
2021/06/03 07:58:04;;;;;;;;;;;;;;;;;;5029094;28;19991;-85
2021/06/03 08:00:30;;;;;;;;;;;;;;;;;;5028417;28;19925;-85
2021/06/03 08:02:57;;;;;;;;;;;;;;;;;;5031399;28;19921;-84
2021/06/03 08:05:23;;;;;;;;;;;;;;;;;;5022287;28;19922;-84
2021/06/03 08:07:49;;;;;;;;;;;;;;;;;;5017130;28;19921;-84
2021/06/03 08:10:16;;;;;;;;;;;;;;;;;;5019164;28;19928;-83
2021/06/03 08:12:43;;;;;;;;;;;;;;;;;;5018454;28;19971;-83
2021/06/03 08:15:10;;;;;;;;;;;;;;;;;;5023688;28;19921;-83
2021/06/03 08:17:36;;;;;;;;;;;;;;;;;;5021315;28;19921;-82
2021/06/03 08:20:02;;;;;;;;;;;;;;;;;;5021640;28;19929;-83
2021/06/03 08:22:28;;;;;;;;;;;;;;;;;;5021747;28;20280;-82
2021/06/03 08:24:54;;;;;;;;;;;;;;;;;;5022901;28;20015;-82
2021/06/03 08:27:20;;;;;;;;;;;;;;;;;;5021284;28;19921;-82
2021/06/03 08:29:47;;;;;;;;;;;;;;;;;;5022092;28;19928;-84
2021/06/03 08:32:13;;;;;;;;;;;;;;;;;;5020604;28;19921;-82
2021/06/03 08:34:38;;;;;;;;;;;;;;;;;;5020127;28;19935;-85
2021/06/03 08:37:04;;;;;;;;;;;;;;;;;;5020851;28;19943;-81
2021/06/03 08:39:30;;;;;;;;;;;;;;;;;;5020418;28;19925;-81
2021/06/03 08:41:58;;;;;;;;;;;;;;;;;;5020726;28;19921;-82
2021/06/03 08:44:23;;;;;;;;;;;;;;;;;;5020586;28;19926;-82
2021/06/03 08:46:51;;;;;;;;;;;;;;;;;;5024172;28;19928;-83
2021/06/03 08:49:16;;;;;;;;;;;;;;;;;;5024794;28;19927;-81
2021/06/03 08:51:42;;;;;;;;;;;;;;;;;;5024971;28;19921;-83
2021/06/03 08:54:08;;;;;;;;;;;;;;;;;;5027900;28;20443;-82
2021/06/03 08:56:34;;;;;;;;;;;;;;;;;;5032493;28;19921;-83
2021/06/03 08:59:00;;;;;;;;;;;;;;;;;;5029049;28;20008;-83
2021/06/03 09:01:27;;;;;;;;;;;;;;;;;;5023546;28;20301;-82
2021/06/03 09:03:55;;;;;;;;;;;;;;;;;;5028590;28;19957;-81
2021/06/03 09:06:21;;;;;;;;;;;;;;;;;;5028841;28;19921;-84
2021/06/03 09:08:48;;;;;;;;;;;;;;;;;;5030586;28;19985;-83
2021/06/03 09:11:14;;;;;;;;;;;;;;;;;;5032067;28;20414;-83
2021/06/03 09:13:41;;;;;;;;;;;;;;;;;;5031254;28;19929;-80
2021/06/03 09:16:15;;;;;;;;;;;;;;;;;;5030146;28;19927;-84
2021/06/03 09:18:42;;;;;;;;;;;;;;;;;;5026009;28;19952;-82
2021/06/03 09:21:10;;;;;;;;;;;;;;;;;;5025770;28;19981;-83
2021/06/03 09:23:36;;;;;;;;;;;;;;;;;;5026286;28;19985;-82
2021/06/03 09:26:06;;;;;;;;;;;;;;;;;;5021605;28;19921;-82
2021/06/03 09:28:32;;;;;;;;;;;;;;;;;;5022447;28;19921;-83
2021/06/03 09:31:05;;;;;;;;;;;;;;;;;;5021846;28;19921;-82
2021/06/03 09:33:35;;;;;;;;;;;;;;;;;;5024971;28;19972;-83
2021/06/03 09:36:01;;;;;;;;;;;;;;;;;;5027250;28;19925;-82
2021/06/03 09:38:28;;;;;;;;;;;;;;;;;;5027688;28;19921;-82
2021/06/03 09:40:54;;;;;;;;;;;;;;;;;;5025701;28;19921;-82
2021/06/03 09:43:20;;;;;;;;;;;;;;;;;;5019875;28;20023;-83
2021/06/03 09:45:53;;;;;;;;;;;;;;;;;;5022065;28;19946;-82
2021/06/03 09:48:35;;;;;;;;;;;;;;;;;;5021187;28;20396;-82
2021/06/03 09:51:17;;;;;;;;;;;;;;;;;;5023837;28;19933;-82
2021/06/03 09:53:57;;;;;;;;;;;;;;;;;;5023061;28;20273;-84
2021/06/03 09:56:24;;;;;;;;;;;;;;;;;;5033449;28;19972;-82
2021/06/03 09:58:49;;;;;;;;;;;;;;;;;;5041233;28;19933;-83
2021/06/03 10:01:15;;;;;;;;;;;;;;;;;;5024823;28;19921;-82
2021/06/03 10:03:51;;;;;;;;;;;;;;;;;;5024200;28;19921;-84
2021/06/03 10:06:17;;;;;;;;;;;;;;;;;;5023647;28;19921;-82
2021/06/03 10:08:46;;;;;;;;;;;;;;;;;;5022915;28;19944;-83
2021/06/03 10:11:13;;;;;;;;;;;;;;;;;;5026297;28;19921;-84
2021/06/03 10:13:43;;;;;;;;;;;;;;;;;;5024096;28;19964;-83
2021/06/03 10:16:17;;;;;;;;;;;;;;;;;;5024945;28;19925;-82
2021/06/03 10:18:43;;;;;;;;;;;;;;;;;;5026593;28;19985;-83
2021/06/03 10:21:12;;;;;;;;;;;;;;;;;;5007050;28;19922;-83
2021/06/03 10:23:37;;;;;;;;;;;;;;;;;;5024004;28;19921;-83
2021/06/03 10:26:05;;;;;;;;;;;;;;;;;;5026590;28;19932;-82
2021/06/03 10:28:32;;;;;;;;;;;;;;;;;;5023970;28;19925;-81
2021/06/03 10:31:01;;;;;;;;;;;;;;;;;;5025689;28;19921;-82
2021/06/03 10:33:28;;;;;;;;;;;;;;;;;;5027567;28;19983;-81
2021/06/03 10:35:54;;;;;;;;;;;;;;;;;;5027817;28;19957;-83
2021/06/03 10:38:20;;;;;;;;;;;;;;;;;;5025058;28;19944;-81
2021/06/03 10:40:47;;;;;;;;;;;;;;;;;;5021806;28;20365;-81
2021/06/03 10:43:13;;;;;;;;;;;;;;;;;;5023673;28;19927;-81
2021/06/03 10:45:41;;;;;;;;;;;;;;;;;;5027445;28;19925;-82
2021/06/03 10:48:07;;;;;;;;;;;;;;;;;;5022323;28;19925;-81
2021/06/03 10:50:36;;;;;;;;;;;;;;;;;;5022684;28;19922;-81
2021/06/03 10:53:05;;;;;;;;;;;;;;;;;;5022071;28;20335;-81
2021/06/03 10:55:32;;;;;;;;;;;;;;;;;;5021304;28;19965;-82
2021/06/03 10:58:00;;;;;;;;;;;;;;;;;;5029159;28;19983;-81
2021/06/03 11:00:27;;;;;;;;;;;;;;;;;;5034757;28;19990;-82
2021/06/03 11:02:55;;;;;;;;;;;;;;;;;;5041555;28;19928;-82
2021/06/03 11:05:22;;;;;;;;;;;;;;;;;;5026644;28;19925;-81
2021/06/03 11:07:48;;;;;;;;;;;;;;;;;;5041717;28;19921;-81
2021/06/03 11:10:24;;;;;;;;;;;;;;;;;;5041707;28;20024;-82
2021/06/03 11:13:06;;;;;;;;;;;;;;;;;;5045624;28;19920;-84
2021/06/03 11:15:31;;;;;;;;;;;;;;;;;;5028202;28;19925;-82
2021/06/03 11:18:02;;;;;;;;;;;;;;;;;;5023867;28;20013;-81
2021/06/03 11:20:41;;;;;;;;;;;;;;;;;;5020666;28;20016;-82
2021/06/03 11:23:22;;;;;;;;;;;;;;;;;;5021121;28;19931;-81
2021/06/03 11:25:48;;;;;;;;;;;;;;;;;;5008994;28;19983;-82
2021/06/03 11:28:20;;;;;;;;;;;;;;;;;;5023098;28;20373;-81
2021/06/03 11:30:46;;;;;;;;;;;;;;;;;;5026236;28;19921;-82
2021/06/03 11:33:14;;;;;;;;;;;;;;;;;;5009727;28;19928;-82
2021/06/03 11:35:40;;;;;;;;;;;;;;;;;;5024837;28;19921;-82
2021/06/03 11:38:05;;;;;;;;;;;;;;;;;;5022056;28;19983;-80
2021/06/03 11:40:31;;;;;;;;;;;;;;;;;;5020648;28;19928;-82
2021/06/03 11:43:05;;;;;;;;;;;;;;;;;;5026602;28;19921;-81
2021/06/03 11:45:31;;;;;;;;;;;;;;;;;;5022155;28;20377;-82
2021/06/03 11:48:10;;;;;;;;;;;;;;;;;;5022072;28;20015;-80
2021/06/03 11:50:38;;;;;;;;;;;;;;;;;;5021535;28;19921;-80
2021/06/03 11:53:05;;;;;;;;;;;;;;;;;;5022617;28;19921;-80
2021/06/03 11:55:31;;;;;;;;;;;;;;;;;;5022075;28;19921;-82
2021/06/03 11:58:09;;;;;;;;;;;;;;;;;;5025615;28;20385;-82
2021/06/03 12:00:37;;;;;;;;;;;;;;;;;;5037603;28;19928;-82
2021/06/03 12:03:10;;;;;;;;;;;;;;;;;;5047561;28;19925;-81
2021/06/03 12:05:45;;;;;;;;;;;;;;;;;;5047508;28;19931;-82
2021/06/03 12:08:10;;;;;;;;;;;;;;;;;;5049133;28;19925;-81
2021/06/03 12:10:52;;;;;;;;;;;;;;;;;;5047276;28;19980;-80
2021/06/03 12:13:18;;;;;;;;;;;;;;;;;;5043556;28;19927;-83
2021/06/03 12:15:44;;;;;;;;;;;;;;;;;;5021101;28;19921;-82
2021/06/03 12:18:10;;;;;;;;;;;;;;;;;;5023010;28;19921;-81
2021/06/03 12:20:36;;;;;;;;;;;;;;;;;;5021626;28;19929;-83
2021/06/03 12:23:03;;;;;;;;;;;;;;;;;;5021958;28;19960;-84
2021/06/03 12:25:32;;;;;;;;;;;;;;;;;;5023049;28;19921;-83
2021/06/03 12:27:58;;;;;;;;;;;;;;;;;;5028861;28;20173;-82
2021/06/03 12:30:26;;;;;;;;;;;;;;;;;;5043353;28;19932;-81
2021/06/03 12:32:59;;;;;;;;;;;;;;;;;;5024148;28;19924;-82
2021/06/03 12:35:30;;;;;;;;;;;;;;;;;;5041807;28;19921;-83
2021/06/03 12:37:56;;;;;;;;;;;;;;;;;;5009758;28;19922;-82
2021/06/03 12:40:24;;;;;;;;;;;;;;;;;;5020319;28;19921;-82
2021/06/03 12:42:49;;;;;;;;;;;;;;;;;;5018625;28;19929;-82
2021/06/03 12:45:16;;;;;;;;;;;;;;;;;;5019105;28;19921;-82
2021/06/03 12:47:42;;;;;;;;;;;;;;;;;;5020383;28;19921;-82
2021/06/03 12:50:12;;;;;;;;;;;;;;;;;;5020978;28;20468;-82
2021/06/03 12:52:38;;;;;;;;;;;;;;;;;;5021513;28;19979;-82
2021/06/03 12:55:05;;;;;;;;;;;;;;;;;;5023884;28;19956;-79
2021/06/03 12:57:34;;;;;;;;;;;;;;;;;;5026857;28;19921;-80
2021/06/03 13:00:00;;;;;;;;;;;;;;;;;;5023914;28;19929;-81
2021/06/03 13:02:29;;;;;;;;;;;;;;;;;;5025992;28;19927;-83
2021/06/03 13:04:55;;;;;;;;;;;;;;;;;;5022095;28;20017;-84
2021/06/03 13:07:25;;;;;;;;;;;;;;;;;;5024489;28;19925;-83
2021/06/03 13:09:54;;;;;;;;;;;;;;;;;;5024838;28;19925;-83
2021/06/03 13:12:20;;;;;;;;;;;;;;;;;;5022740;28;19921;-83
2021/06/03 13:14:48;;;;;;;;;;;;;;;;;;5022602;28;19948;-83
2021/06/03 13:17:17;;;;;;;;;;;;;;;;;;5023267;28;19960;-81
2021/06/03 13:19:44;;;;;;;;;;;;;;;;;;5022993;28;19944;-82
2021/06/03 13:22:10;;;;;;;;;;;;;;;;;;5021105;28;20037;-81
2021/06/03 13:24:38;;;;;;;;;;;;;;;;;;5024319;28;19922;-82
2021/06/03 13:27:05;;;;;;;;;;;;;;;;;;5021690;28;19925;-82
2021/06/03 13:29:31;;;;;;;;;;;;;;;;;;5020722;28;20016;-83
2021/06/03 13:31:59;;;;;;;;;;;;;;;;;;5005107;28;19921;-82
2021/06/03 13:34:33;;;;;;;;;;;;;;;;;;5007231;28;19921;-82
2021/06/03 13:37:03;;;;;;;;;;;;;;;;;;5007757;28;19922;-83
2021/06/03 13:39:29;;;;;;;;;;;;;;;;;;5025756;28;19952;-83
2021/06/03 13:41:57;;;;;;;;;;;;;;;;;;5026490;28;19922;-82
2021/06/03 13:44:23;;;;;;;;;;;;;;;;;;5007996;28;19944;-82
2021/06/03 13:46:49;;;;;;;;;;;;;;;;;;5025193;28;19922;-83
2021/06/03 13:49:24;;;;;;;;;;;;;;;;;;5024393;28;19932;-84
2021/06/03 13:51:57;;;;;;;;;;;;;;;;;;5023826;28;19922;-82
2021/06/03 13:54:23;;;;;;;;;;;;;;;;;;5012331;28;19921;-83
2021/06/03 13:56:50;;;;;;;;;;;;;;;;;;5023593;28;19929;-83
2021/06/03 13:59:19;;;;;;;;;;;;;;;;;;5030779;28;20256;-83
2021/06/03 14:01:46;;;;;;;;;;;;;;;;;;5039664;28;19921;-83
2021/06/03 14:04:16;;;;;;;;;;;;;;;;;;5013775;28;20001;-84
2021/06/03 14:06:44;;;;;;;;;;;;;;;;;;5012698;28;19930;-84
2021/06/03 14:09:23;;;;;;;;;;;;;;;;;;5028721;28;19925;-83
2021/06/03 14:11:53;;;;;;;;;;;;;;;;;;5025114;28;19961;-83
2021/06/03 14:14:20;;;;;;;;;;;;;;;;;;5029830;28;19921;-84
2021/06/03 14:16:50;;;;;;;;;;;;;;;;;;5025635;28;19944;-83
2021/06/03 14:19:17;;;;;;;;;;;;;;;;;;5024715;28;19926;-84
2021/06/03 14:21:57;;;;;;;;;;;;;;;;;;5022894;28;19921;-84
2021/06/03 14:24:28;;;;;;;;;;;;;;;;;;5004613;28;19928;-84
2021/06/03 14:26:54;;;;;;;;;;;;;;;;;;5022279;28;19929;-83
2021/06/03 14:29:20;;;;;;;;;;;;;;;;;;5025664;28;19922;-85
2021/06/03 14:31:47;;;;;;;;;;;;;;;;;;5006706;28;19964;-84
2021/06/03 14:34:26;;;;;;;;;;;;;;;;;;5022362;28;20024;-84
2021/06/03 14:36:53;;;;;;;;;;;;;;;;;;5028492;28;20373;-85
2021/06/03 14:39:19;;;;;;;;;;;;;;;;;;5022183;28;20431;-84
2021/06/03 14:41:45;;;;;;;;;;;;;;;;;;5024077;28;19921;-84
2021/06/03 14:44:11;;;;;;;;;;;;;;;;;;5022703;28;20004;-84
2021/06/03 14:46:37;;;;;;;;;;;;;;;;;;5022891;28;19961;-85
2021/06/03 14:49:03;;;;;;;;;;;;;;;;;;5021197;28;19925;-85
2021/06/03 14:51:29;;;;;;;;;;;;;;;;;;5020439;28;20323;-83
2021/06/03 14:53:56;;;;;;;;;;;;;;;;;;5020613;28;19925;-83
2021/06/03 14:56:21;;;;;;;;;;;;;;;;;;5022451;28;19930;-84
2021/06/03 14:58:50;;;;;;;;;;;;;;;;;;5021559;28;19963;-84
2021/06/03 15:01:17;;;;;;;;;;;;;;;;;;5028715;28;19921;-84
2021/06/03 15:03:42;;;;;;;;;;;;;;;;;;5028105;28;19921;-85
2021/06/03 15:06:08;;;;;;;;;;;;;;;;;;5022151;28;19922;-85
2021/06/03 15:08:34;;;;;;;;;;;;;;;;;;5022025;28;19921;-83
2021/06/03 15:11:02;;;;;;;;;;;;;;;;;;5022955;28;19921;-84
2021/06/03 15:13:29;;;;;;;;;;;;;;;;;;5022503;28;19921;-83
2021/06/03 15:15:56;;;;;;;;;;;;;;;;;;5023271;28;19921;-85
2021/06/03 15:18:22;;;;;;;;;;;;;;;;;;5022869;28;19968;-82
2021/06/03 15:20:49;;;;;;;;;;;;;;;;;;5023482;28;19921;-84
2021/06/03 15:23:17;;;;;;;;;;;;;;;;;;5019929;28;19921;-84
2021/06/03 15:25:43;;;;;;;;;;;;;;;;;;5022453;28;20361;-83
2021/06/03 15:28:11;;;;;;;;;;;;;;;;;;5022620;28;19956;-85
2021/06/03 15:30:39;;;;;;;;;;;;;;;;;;5020960;28;20062;-84
2021/06/03 15:33:05;;;;;;;;;;;;;;;;;;5019651;28;19921;-84
2021/06/03 15:35:31;;;;;;;;;;;;;;;;;;5018326;28;19922;-83
2021/06/03 15:37:58;;;;;;;;;;;;;;;;;;5018396;28;19921;-85
2021/06/03 15:40:23;;;;;;;;;;;;;;;;;;5021397;28;19926;-84
2021/06/03 15:42:49;;;;;;;;;;;;;;;;;;5028258;28;20070;-83
2021/06/03 15:45:17;;;;;;;;;;;;;;;;;;5024041;28;20278;-82
2021/06/03 15:47:44;;;;;;;;;;;;;;;;;;5018954;28;19928;-84
2021/06/03 15:50:11;;;;;;;;;;;;;;;;;;5021745;28;19921;-83
2021/06/03 15:52:37;;;;;;;;;;;;;;;;;;5021813;28;19967;-83
2021/06/03 15:55:03;;;;;;;;;;;;;;;;;;5028017;28;19923;-82
2021/06/03 15:57:29;;;;;;;;;;;;;;;;;;5027131;28;19933;-83
2021/06/03 15:59:55;;;;;;;;;;;;;;;;;;5022965;28;19922;-83
2021/06/03 16:02:22;;;;;;;;;;;;;;;;;;5026096;28;19921;-83
2021/06/03 16:04:48;;;;;;;;;;;;;;;;;;5023093;28;19921;-84
2021/06/03 16:07:13;;;;;;;;;;;;;;;;;;5027095;28;19921;-83
2021/06/03 16:09:39;;;;;;;;;;;;;;;;;;5022030;28;19927;-83
2021/06/03 16:12:06;;;;;;;;;;;;;;;;;;5021846;28;20012;-83
2021/06/03 16:14:32;;;;;;;;;;;;;;;;;;5021349;28;19971;-83
2021/06/03 16:16:57;;;;;;;;;;;;;;;;;;5021789;28;19921;-83
2021/06/03 16:19:25;;;;;;;;;;;;;;;;;;5020647;28;19998;-84
2021/06/03 16:21:51;;;;;;;;;;;;;;;;;;5021778;28;19921;-85
2021/06/03 16:24:16;;;;;;;;;;;;;;;;;;5031215;28;19944;-82
2021/06/03 16:26:42;;;;;;;;;;;;;;;;;;5040948;28;19927;-84
2021/06/03 16:29:08;;;;;;;;;;;;;;;;;;5046728;28;20104;-83
2021/06/03 16:31:35;;;;;;;;;;;;;;;;;;5050257;28;19969;-85
2021/06/03 16:34:01;;;;;;;;;;;;;;;;;;5050267;28;19921;-84
2021/06/03 16:36:28;;;;;;;;;;;;;;;;;;5049983;28;19949;-85
2021/06/03 16:38:54;;;;;;;;;;;;;;;;;;5049314;28;19928;-84
2021/06/03 16:41:23;;;;;;;;;;;;;;;;;;5048069;28;20271;-81
2021/06/03 16:43:49;;;;;;;;;;;;;;;;;;5047002;28;19921;-84
2021/06/03 16:46:15;;;;;;;;;;;;;;;;;;5046330;28;19932;-85
2021/06/03 16:48:41;;;;;;;;;;;;;;;;;;5039684;28;19930;-83
2021/06/03 16:51:07;;;;;;;;;;;;;;;;;;5021382;28;20348;-85